DL1NER Weather Reports


Display with metric or nautical units.
time (UTC)temp
F
wind
direction
speed
MPH
gust
MPH
rain 1hr
in
rain 24hr
in
rain mn
in
humidity
%
barometer
mb
20220525055010 54 263 1.0 2.0 0.00 0.00 0.00 73 1014.9
20220525054010 54 263 2.0 4.0 0.00 0.00 0.00 72 1014.8
20220525053010 54 263 2.0 4.0 0.00 0.00 0.00 74 1014.6
20220525052010 54 263 3.0 6.0 0.00 0.00 0.00 73 1014.4
20220525051010 54 263 2.0 6.0 0.00 0.00 0.00 73 1014.1
20220525050010 54 256 3.0 6.0 0.00 0.00 0.00 74 1014.2
20220525045010 54 265 0.0 2.0 0.00 0.00 0.00 74 1013.9
20220525044009 54 265 2.0 7.0 0.00 0.00 0.00 72 1013.7
20220525043010 54 283 2.0 4.0 0.00 0.00 0.00 71 1013.9
20220525042010 54 283 1.0 7.0 0.00 0.00 0.00 71 1013.7
20220525041010 54 265 2.0 6.0 0.00 0.00 0.00 72 1013.7
20220525040010 54 264 2.0 7.0 0.00 0.00 0.00 72 1013.5
20220525035010 54 262 2.0 6.0 0.00 0.00 0.00 73 1013.5
20220525034010 54 259 2.0 4.0 0.00 0.00 0.00 73 1013.2
20220525033010 54 259 2.0 4.0 0.00 0.00 0.00 73 1013.2
20220525032010 54 252 2.0 4.0 0.00 0.00 0.00 72 1013.1
20220525031010 54 261 1.0 3.0 0.00 0.00 0.00 71 1013.1
20220525030008 54 261 2.0 3.0 0.00 0.00 0.00 71 1013.0
20220525025009 55 261 2.0 2.0 0.00 0.00 0.00 71 1013.0
20220525024009 55 261 2.0 4.0 0.00 0.00 0.00 71 1012.8
20220525023009 55 272 1.0 3.0 0.00 0.00 0.00 70 1012.8
20220525022008 55 273 2.0 4.0 0.00 0.00 0.00 71 1012.9
20220525021008 55 273 2.0 4.0 0.00 0.00 0.00 71 1012.9
20220525020009 56 247 2.0 3.0 0.00 0.00 0.00 72 1012.7
20220525015008 56 247 1.0 3.0 0.00 0.00 0.00 71 1012.8
20220525014009 56 247 1.0 3.0 0.00 0.00 0.00 71 1012.8
20220525013008 56 247 1.0 2.0 0.00 0.00 0.00 70 1012.6
20220525012008 56 247 1.0 2.0 0.00 0.00 0.00 70 1012.6
20220525011009 56 247 1.0 3.0 0.00 0.00 0.00 71 1012.6
20220525010009 56 247 1.0 3.0 0.00 0.00 0.00 71 1012.7
20220525005008 57 247 2.0 4.0 0.00 0.00 0.00 70 1012.6
20220525004008 57 242 2.0 4.0 0.00 0.00 0.00 70 1012.6
20220525003013 57 242 2.0 3.0 0.00 0.00 0.00 70 1012.6
20220525002013 57 242 0.0 0.0 0.00 0.00 0.00 70 1012.6
20220525001013 57 242 0.0 0.0 0.00 0.00 0.00 70 1012.5
20220525000013 57 242 0.0 0.0 0.00 0.00 0.00 69 1012.6
20220524235013 57 242 0.0 0.0 0.00 0.00 0.00 69 1012.5
20220524234013 57 242 0.0 0.0 0.00 0.00 0.00 69 1012.4
20220524233012 57 242 0.0 0.0 0.00 0.00 0.00 69 1012.4
20220524232013 58 242 0.0 1.0 0.00 0.00 0.00 69 1012.3
20220524231013 58 242 0.0 2.0 0.00 0.00 0.00 70 1012.2
20220524230013 58 242 1.0 2.0 0.00 0.00 0.00 70 1012.1
20220524225012 58 242 1.0 2.0 0.00 0.00 0.00 70 1012.1
20220524224012 58 242 2.0 3.0 0.00 0.00 0.00 68 1012.1
20220524223012 58 242 2.0 3.0 0.00 0.00 0.00 68 1012.1
20220524222012 58 242 1.0 2.0 0.00 0.00 0.00 68 1012.1
20220524221012 58 242 1.0 2.0 0.00 0.00 0.00 67 1012.0
20220524220012 58 242 0.0 1.0 0.00 0.00 0.00 66 1011.9
20220524215012 58 242 0.0 2.0 0.00 0.08 0.08 66 1011.8
20220524214012 59 242 2.0 3.0 0.00 0.08 0.08 67 1011.5
20220524213012 59 242 2.0 3.0 0.00 0.08 0.08 67 1011.5
20220524212012 59 242 1.0 3.0 0.00 0.08 0.08 65 1011.6
20220524211012 60 227 1.0 3.0 0.00 0.08 0.08 64 1011.5
20220524210012 60 227 1.0 3.0 0.00 0.08 0.08 64 1011.5
20220524205012 60 227 1.0 3.0 0.00 0.08 0.08 64 1011.5
20220524204012 60 225 0.0 3.0 0.00 0.08 0.08 63 1011.4
20220524203012 60 225 0.0 0.0 0.00 0.08 0.08 62 1011.4
20220524202012 60 225 0.0 0.0 0.00 0.08 0.08 61 1011.4
20220524201011 60 225 1.0 2.0 0.00 0.08 0.08 58 1011.3
20220524200011 60 225 1.0 2.0 0.00 0.08 0.08 58 1011.3
20220524195012 61 225 0.0 2.0 0.00 0.08 0.08 59 1011.0
20220524194011 62 266 2.0 6.0 0.00 0.08 0.08 58 1010.5
20220524193012 62 266 2.0 6.0 0.00 0.08 0.08 58 1010.5
20220524192011 62 257 2.0 4.0 0.00 0.08 0.08 57 1010.7
20220524191011 64 257 2.0 4.0 0.00 0.08 0.08 55 1010.4
20220524190011 64 257 2.0 4.0 0.00 0.08 0.08 55 1010.4
20220524185011 64 255 2.0 3.0 0.00 0.08 0.08 55 1010.3
20220524184011 65 246 2.0 4.0 0.00 0.08 0.08 54 1010.1
20220524183011 65 246 2.0 4.0 0.00 0.08 0.08 54 1010.1
20220524182011 65 245 4.0 4.0 0.00 0.08 0.08 55 1010.0
20220524181011 65 269 3.0 6.0 0.00 0.08 0.08 54 1009.8
20220524180011 65 269 3.0 6.0 0.00 0.08 0.08 54 1009.8
20220524175011 65 263 2.0 5.0 0.00 0.08 0.08 54 1009.7
20220524174011 66 298 2.0 6.0 0.00 0.08 0.08 51 1009.4
20220524173010 67 277 3.0 8.0 0.00 0.08 0.08 52 1009.3
20220524172011 67 255 3.0 7.0 0.00 0.08 0.08 51 1009.3
20220524171010 68 245 4.0 9.0 0.00 0.08 0.08 48 1009.2
20220524170011 68 245 4.0 9.0 0.00 0.08 0.08 48 1009.2
20220524165010 67 275 6.0 11.0 0.00 0.08 0.08 50 1009.2
20220524164010 67 251 5.0 12.0 0.00 0.08 0.08 51 1009.3
20220524163010 68 283 4.0 9.0 0.00 0.08 0.08 52 1009.1
20220524162010 68 234 4.0 12.0 0.00 0.08 0.08 51 1009.1
20220524161010 69 167 4.0 10.0 0.00 0.08 0.08 52 1008.8
20220524160010 69 167 4.0 10.0 0.00 0.08 0.08 52 1008.8
20220524155010 69 259 3.0 8.0 0.00 0.08 0.08 54 1008.9
20220524154010 67 246 3.0 9.0 0.00 0.08 0.08 54 1008.8
20220524153010 67 257 4.0 10.0 0.00 0.08 0.08 54 1008.7
20220524152010 68 254 4.0 11.0 0.00 0.08 0.08 54 1008.8
20220524151010 69 248 5.0 12.0 0.00 0.08 0.08 53 1008.7
20220524150010 68 227 5.0 13.0 0.00 0.08 0.08 55 1008.8
20220524145009 67 262 5.0 9.0 0.00 0.08 0.08 55 1008.7
20220524144010 67 238 5.0 14.0 0.00 0.08 0.08 54 1008.7
20220524143010 68 233 4.0 9.0 0.00 0.08 0.08 56 1008.8
20220524142010 67 238 6.0 14.0 0.00 0.08 0.08 57 1008.8
20220524141009 66 224 6.0 14.0 0.00 0.08 0.08 60 1008.7
20220524140009 64 263 6.0 13.0 0.00 0.08 0.08 59 1008.7
20220524135009 63 223 6.0 14.0 0.00 0.08 0.08 62 1008.8
20220524134009 64 273 9.0 17.0 0.00 0.08 0.08 60 1008.7
20220524133009 64 273 9.0 17.0 0.00 0.08 0.08 60 1008.7
20220524132009 61 246 3.0 9.0 0.00 0.04 0.08 76 1005.9
20220524131009 66 285 6.0 13.0 0.00 0.08 0.08 58 1008.2
20220524130009 67 273 5.0 12.0 0.00 0.08 0.08 56 1008.1
20220524125014 68 227 6.0 13.0 0.00 0.08 0.08 57 1008.0
20220524124013 67 219 8.0 19.0 0.00 0.08 0.08 58 1007.9
20220524123013 67 219 8.0 19.0 0.00 0.08 0.08 58 1007.9
20220524122013 67 253 7.0 17.0 0.00 0.08 0.08 54 1008.0
20220524121013 66 281 7.0 16.0 0.00 0.08 0.08 63 1007.8
20220524120016 65 270 7.0 15.0 0.00 0.08 0.08 60 1007.9
20220524115013 65 226 7.0 20.0 0.00 0.08 0.08 64 1008.0
20220524114013 64 239 5.0 15.0 0.00 0.08 0.08 63 1008.1
20220524113013 64 239 5.0 15.0 0.00 0.08 0.08 63 1008.1
20220524112013 63 244 7.0 20.0 0.00 0.08 0.08 67 1007.9
20220524111012 62 264 7.0 16.0 0.00 0.08 0.08 66 1007.7
20220524110012 62 264 7.0 16.0 0.00 0.08 0.08 66 1007.7
20220524105012 61 287 5.0 13.0 0.00 0.08 0.08 69 1007.7
20220524104012 61 244 4.0 11.0 0.00 0.08 0.08 76 1007.7
20220524103012 61 244 4.0 11.0 0.00 0.08 0.08 76 1007.7
20220524102014 60 236 5.0 13.0 0.00 0.08 0.08 73 1007.5
20220524101012 59 243 3.0 10.0 0.04 0.08 0.08 79 1007.3
20220524100013 59 243 3.0 10.0 0.04 0.08 0.08 79 1007.3
20220524095012 58 232 5.0 10.0 0.04 0.08 0.08 78 1007.2
20220524094012 58 243 3.0 10.0 0.04 0.08 0.08 77 1007.1
20220524093012 58 243 3.0 10.0 0.04 0.08 0.08 77 1007.1
20220524092012 59 225 9.0 18.0 0.04 0.08 0.08 71 1007.0
20220524091012 63 236 4.0 9.0 0.00 0.04 0.04 71 1006.2
20220524090012 63 236 4.0 9.0 0.00 0.04 0.04 71 1006.2
20220524085012 63 156 3.0 11.0 0.00 0.04 0.04 72 1006.1
20220524084012 63 175 3.0 8.0 0.00 0.04 0.04 72 1006.1
20220524083012 63 175 0.0 8.0 0.00 0.04 0.04 72 1006.1
20220524082012 62 175 3.0 12.0 0.00 0.04 0.04 73 1006.0
20220524081012 62 167 3.0 6.0 0.00 0.04 0.04 73 1005.9
20220524080011 62 167 3.0 6.0 0.00 0.04 0.04 73 1005.9
20220524075012 62 190 4.0 9.0 0.00 0.04 0.04 74 1006.0
20220524074011 61 219 3.0 10.0 0.00 0.04 0.04 73 1005.9
20220524073011 61 219 3.0 10.0 0.00 0.04 0.04 73 1005.9
20220524072011 61 246 3.0 9.0 0.00 0.04 0.04 76 1005.9
20220524071011 61 236 4.0 11.0 0.00 0.04 0.04 77 1005.8
20220524070011 61 236 4.0 11.0 0.00 0.04 0.04 77 1005.8
20220524065011 61 214 1.0 5.0 0.00 0.04 0.04 79 1005.6
20220524064011 60 231 2.0 10.0 0.00 0.04 0.04 80 1005.5
20220524063011 60 231 3.0 10.0 0.00 0.04 0.04 80 1005.5
20220524062011 60 200 4.0 8.0 0.00 0.04 0.04 81 1005.6
20220524061011 60 208 3.0 8.0 0.00 0.04 0.04 87 1005.1
20220524060011 60 208 3.0 8.0 0.00 0.04 0.04 87 1005.1